Time;durP1;ratioP1;P1;durP2;ratioP2;P2;SDS_P1;SDS_P2;PMS_P1;PMS_P2;Temp;Humidity;BMP_temperature;BMP_pressure;BME280_temperature;BME280_humidity;BME280_pressure;Samples;Min_cycle;Max_cycle;Signal;HPM_P1;HPM_P2
2021/09/25 00:01:09;;;;;;;18.20;6.57;;;17.10;99.90;;;;;;5095565;28;20039;-74
2021/09/25 00:03:34;;;;;;;13.05;5.10;;;17.10;99.90;;;;;;5095563;28;20048;-75
2021/09/25 00:06:00;;;;;;;16.10;5.88;;;17.10;99.90;;;;;;5095033;28;20115;-75
2021/09/25 00:08:26;;;;;;;13.77;5.90;;;17.10;99.90;;;;;;5095264;28;20070;-75
2021/09/25 00:10:51;;;;;;;17.40;6.53;;;17.10;99.90;;;;;;5093569;28;20043;-75
2021/09/25 00:13:17;;;;;;;12.80;5.95;;;17.10;99.90;;;;;;5093830;28;20385;-74
2021/09/25 00:15:42;;;;;;;16.23;6.50;;;17.20;99.90;;;;;;5094662;28;20044;-74
2021/09/25 00:18:08;;;;;;;13.10;6.32;;;17.10;99.90;;;;;;5093712;28;20048;-74
2021/09/25 00:20:36;;;;;;;15.10;7.10;;;17.10;99.90;;;;;;5094452;28;20040;-74
2021/09/25 00:23:01;;;;;;;15.57;6.65;;;17.10;99.90;;;;;;5094824;28;20051;-74
2021/09/25 00:25:27;;;;;;;16.27;7.53;;;17.10;99.90;;;;;;5095130;28;20040;-74
2021/09/25 00:27:53;;;;;;;17.55;6.70;;;17.20;99.90;;;;;;5093836;28;20063;-75
2021/09/25 00:30:18;;;;;;;20.40;6.57;;;17.10;99.90;;;;;;5094647;28;20044;-75
2021/09/25 00:32:44;;;;;;;15.35;6.65;;;17.10;99.90;;;;;;5094843;28;20114;-75
2021/09/25 00:35:11;;;;;;;15.07;6.93;;;17.00;99.90;;;;;;5094823;28;20523;-75
2021/09/25 00:37:38;;;;;;;17.92;8.18;;;17.00;99.90;;;;;;5094566;28;20051;-74
2021/09/25 00:40:05;;;;;;;16.23;7.50;;;17.10;99.90;;;;;;5094292;28;20513;-75
2021/09/25 00:42:30;;;;;;;21.65;8.13;;;17.00;99.90;;;;;;5093217;28;20032;-74
2021/09/25 00:44:56;;;;;;;20.42;7.45;;;17.00;99.90;;;;;;5094238;28;20541;-74
2021/09/25 00:47:22;;;;;;;18.45;7.78;;;17.00;99.90;;;;;;5094010;28;20526;-75
2021/09/25 00:49:47;;;;;;;14.40;6.95;;;17.00;99.90;;;;;;5093986;28;20096;-74
2021/09/25 00:52:13;;;;;;;18.33;7.57;;;17.00;99.90;;;;;;5094146;28;20392;-75
2021/09/25 00:54:39;;;;;;;17.02;7.32;;;17.00;99.90;;;;;;5094195;28;20036;-74
2021/09/25 00:57:04;;;;;;;24.63;9.00;;;17.00;99.90;;;;;;5094180;28;20058;-74
2021/09/25 00:59:31;;;;;;;22.02;7.10;;;17.00;99.90;;;;;;5093766;28;20036;-74
2021/09/25 01:01:57;;;;;;;21.45;7.90;;;17.00;99.90;;;;;;5094635;28;20044;-74
2021/09/25 01:04:23;;;;;;;16.50;7.65;;;17.00;99.90;;;;;;5092848;28;20075;-75
2021/09/25 01:06:49;;;;;;;19.15;7.43;;;17.00;99.90;;;;;;5094468;28;20058;-74
2021/09/25 01:09:14;;;;;;;19.63;7.50;;;17.00;99.90;;;;;;5093957;28;20504;-74
2021/09/25 01:11:40;;;;;;;19.58;8.27;;;17.00;99.90;;;;;;5093682;28;20039;-74
2021/09/25 01:14:06;;;;;;;17.08;6.82;;;17.00;99.90;;;;;;5092746;28;20039;-74
2021/09/25 01:16:32;;;;;;;16.77;7.03;;;17.00;99.90;;;;;;5093612;28;20040;-74
2021/09/25 01:18:58;;;;;;;21.27;8.05;;;17.00;99.90;;;;;;5091975;28;20058;-75
2021/09/25 01:21:24;;;;;;;18.75;7.13;;;17.00;99.90;;;;;;5092337;28;20040;-75
2021/09/25 01:23:49;;;;;;;21.38;8.15;;;17.00;99.90;;;;;;5092353;28;20036;-75
2021/09/25 01:26:15;;;;;;;18.60;8.25;;;17.00;99.90;;;;;;5093879;28;20043;-74
2021/09/25 01:28:42;;;;;;;16.30;7.18;;;17.00;99.90;;;;;;5093433;28;20039;-75
2021/09/25 01:31:11;;;;;;;21.48;7.72;;;17.10;99.90;;;;;;5094358;28;20032;-74
2021/09/25 01:33:40;;;;;;;11.48;6.85;;;17.10;99.90;;;;;;5093395;28;20043;-74
2021/09/25 01:36:07;;;;;;;18.08;7.38;;;17.00;99.90;;;;;;5092182;28;20044;-74
2021/09/25 01:38:33;;;;;;;25.98;8.10;;;17.00;99.90;;;;;;5093473;28;20040;-75
2021/09/25 01:40:58;;;;;;;17.08;6.65;;;17.10;99.90;;;;;;5093709;28;20436;-74
2021/09/25 01:43:25;;;;;;;19.17;8.10;;;17.00;99.90;;;;;;5094115;28;20047;-74
2021/09/25 01:45:51;;;;;;;24.65;8.23;;;17.10;99.90;;;;;;5093666;28;20115;-74
2021/09/25 01:48:18;;;;;;;19.20;7.68;;;17.10;99.90;;;;;;5093333;28;20127;-74
2021/09/25 01:50:43;;;;;;;18.17;7.80;;;17.10;99.90;;;;;;5093175;28;20051;-74
2021/09/25 01:53:10;;;;;;;22.13;7.82;;;17.20;99.90;;;;;;5091840;28;20036;-74
2021/09/25 01:55:35;;;;;;;21.98;6.93;;;17.10;99.90;;;;;;5093391;28;20081;-74
2021/09/25 01:58:01;;;;;;;17.98;6.22;;;17.10;99.90;;;;;;5093245;28;20044;-74
2021/09/25 02:00:27;;;;;;;18.23;7.32;;;17.10;99.90;;;;;;5095173;28;20054;-74
2021/09/25 02:02:54;;;;;;;17.60;7.22;;;17.10;99.90;;;;;;5097623;28;20036;-74
2021/09/25 02:05:21;;;;;;;16.58;7.82;;;17.10;99.90;;;;;;5097501;28;20032;-74
2021/09/25 02:07:48;;;;;;;17.13;7.68;;;17.10;99.90;;;;;;5097314;28;20051;-74
2021/09/25 02:10:14;;;;;;;16.63;6.32;;;17.10;99.90;;;;;;5097103;28;20044;-74
2021/09/25 02:12:40;;;;;;;17.30;6.85;;;17.10;99.90;;;;;;5097180;28;20476;-74
2021/09/25 02:15:06;;;;;;;13.70;6.28;;;17.10;99.90;;;;;;5097380;28;20039;-74
2021/09/25 02:17:32;;;;;;;19.75;6.80;;;17.10;99.90;;;;;;5097160;28;20032;-75
2021/09/25 02:19:57;;;;;;;18.80;7.40;;;17.10;99.90;;;;;;5097143;28;20046;-75
2021/09/25 02:22:23;;;;;;;18.85;6.45;;;17.10;99.90;;;;;;5097409;28;20040;-75
2021/09/25 02:24:49;;;;;;;17.77;6.28;;;17.10;99.90;;;;;;5097534;28;20047;-75
2021/09/25 02:27:15;;;;;;;14.02;6.18;;;17.10;99.90;;;;;;5096929;28;20064;-74
2021/09/25 02:29:40;;;;;;;19.27;6.80;;;17.10;99.90;;;;;;5096755;28;20435;-75
2021/09/25 02:32:07;;;;;;;15.02;7.20;;;17.10;99.90;;;;;;5096811;28;20043;-74
2021/09/25 02:34:34;;;;;;;17.58;6.57;;;17.00;99.90;;;;;;5095792;28;20040;-74
2021/09/25 02:36:59;;;;;;;15.65;6.65;;;17.10;99.90;;;;;;5096832;28;20038;-74
2021/09/25 02:39:29;;;;;;;16.35;5.70;;;17.00;99.90;;;;;;5096387;28;20404;-74
2021/09/25 02:41:54;;;;;;;17.55;6.35;;;17.10;99.90;;;;;;5096745;28;20036;-74
2021/09/25 02:44:20;;;;;;;15.55;6.25;;;17.10;99.90;;;;;;5097269;28;20545;-74
2021/09/25 02:46:47;;;;;;;16.27;5.75;;;17.10;99.90;;;;;;5097168;28;20036;-74
2021/09/25 02:49:18;;;;;;;13.60;6.20;;;17.10;99.90;;;;;;5095024;28;20044;-74
2021/09/25 02:51:44;;;;;;;15.80;6.45;;;17.10;99.90;;;;;;5096980;28;20089;-75
2021/09/25 02:54:10;;;;;;;14.82;5.32;;;17.00;99.90;;;;;;5097045;28;20519;-74
2021/09/25 02:56:36;;;;;;;13.95;6.40;;;17.00;99.90;;;;;;5096332;28;20044;-74
2021/09/25 02:59:02;;;;;;;17.98;6.50;;;17.00;99.90;;;;;;5094666;28;20048;-74
2021/09/25 03:01:28;;;;;;;19.23;6.22;;;17.00;99.90;;;;;;5096190;28;20064;-74
2021/09/25 03:03:54;;;;;;;15.55;5.75;;;17.00;99.90;;;;;;5096187;28;20125;-74
2021/09/25 03:06:27;;;;;;;18.35;6.10;;;17.00;99.90;;;;;;5096127;28;20075;-74
2021/09/25 03:08:53;;;;;;;16.48;6.30;;;17.00;99.90;;;;;;5096334;28;20509;-75
2021/09/25 03:11:19;;;;;;;15.65;6.20;;;17.00;99.90;;;;;;5096234;28;20127;-75
2021/09/25 03:13:45;;;;;;;15.02;6.65;;;17.00;99.90;;;;;;5096509;28;20051;-74
2021/09/25 03:16:14;;;;;;;13.95;5.80;;;17.00;99.90;;;;;;5096036;28;20071;-74
2021/09/25 03:18:40;;;;;;;17.90;7.30;;;16.90;99.90;;;;;;5095875;28;20040;-75
2021/09/25 03:21:06;;;;;;;10.73;5.43;;;16.90;99.90;;;;;;5096171;28;20048;-75
2021/09/25 03:23:31;;;;;;;17.65;7.25;;;16.80;99.90;;;;;;5095101;28;20040;-75
2021/09/25 03:25:57;;;;;;;18.75;6.18;;;16.80;99.90;;;;;;5095885;28;20103;-75
2021/09/25 03:28:22;;;;;;;15.43;7.20;;;16.80;99.90;;;;;;5095850;28;20061;-74
2021/09/25 03:30:48;;;;;;;11.07;5.57;;;16.80;99.90;;;;;;5095793;28;20380;-74
2021/09/25 03:33:14;;;;;;;19.10;5.97;;;16.90;99.90;;;;;;5095611;28;20047;-74
2021/09/25 03:35:46;;;;;;;20.13;7.03;;;16.90;99.90;;;;;;5096387;28;20028;-74
2021/09/25 03:38:19;;;;;;;16.92;6.63;;;16.90;99.90;;;;;;5095572;28;20488;-74
2021/09/25 03:40:45;;;;;;;17.63;6.50;;;16.90;99.90;;;;;;5095779;28;20044;-75
2021/09/25 03:43:12;;;;;;;16.25;6.38;;;16.90;99.90;;;;;;5095634;28;20080;-74
2021/09/25 03:45:37;;;;;;;19.70;6.53;;;16.90;99.90;;;;;;5095891;28;20360;-74
2021/09/25 03:48:05;;;;;;;13.35;5.63;;;16.90;99.90;;;;;;5095386;28;20040;-74
2021/09/25 03:50:32;;;;;;;14.32;6.00;;;16.90;99.90;;;;;;5093993;28;20051;-74
2021/09/25 03:52:58;;;;;;;16.90;6.30;;;16.90;99.90;;;;;;5095352;28;20043;-74
2021/09/25 03:55:23;;;;;;;17.92;6.40;;;16.90;99.90;;;;;;5095173;28;20365;-74
2021/09/25 03:57:49;;;;;;;17.95;7.25;;;16.90;99.90;;;;;;5094364;28;20028;-75
2021/09/25 04:00:15;;;;;;;17.90;6.93;;;17.00;99.90;;;;;;5093714;28;20060;-74
2021/09/25 04:02:41;;;;;;;22.00;6.82;;;17.00;99.90;;;;;;5095612;28;20064;-74
2021/09/25 04:05:07;;;;;;;21.67;7.07;;;17.00;99.90;;;;;;5095074;28;20043;-74
2021/09/25 04:07:33;;;;;;;18.70;7.18;;;17.00;99.90;;;;;;5094927;28;20533;-74
2021/09/25 04:10:00;;;;;;;22.75;7.55;;;17.00;99.90;;;;;;5094985;28;20036;-74
2021/09/25 04:12:25;;;;;;;16.45;6.53;;;17.00;99.90;;;;;;5094847;28;20032;-74
2021/09/25 04:14:51;;;;;;;17.42;7.38;;;16.90;99.90;;;;;;5094922;28;20093;-74
2021/09/25 04:17:16;;;;;;;13.65;6.78;;;16.90;99.90;;;;;;5094742;28;20093;-74
2021/09/25 04:19:42;;;;;;;24.90;6.88;;;16.90;99.90;;;;;;5094501;28;20035;-75
2021/09/25 04:22:08;;;;;;;15.90;6.82;;;16.90;99.90;;;;;;5094238;28;20492;-75
2021/09/25 04:24:33;;;;;;;22.35;8.10;;;16.90;99.90;;;;;;5094686;28;20040;-75
2021/09/25 04:26:59;;;;;;;23.63;7.55;;;16.90;99.90;;;;;;5094919;28;20040;-74
2021/09/25 04:29:24;;;;;;;25.27;8.95;;;16.90;99.90;;;;;;5094342;28;20047;-75
2021/09/25 04:31:50;;;;;;;21.83;7.55;;;16.90;99.90;;;;;;5093795;28;20055;-74
2021/09/25 04:34:15;;;;;;;19.65;7.40;;;16.90;99.90;;;;;;5095019;28;20395;-74
2021/09/25 04:36:42;;;;;;;20.33;8.45;;;16.90;99.90;;;;;;5093264;28;20040;-74
2021/09/25 04:39:08;;;;;;;16.55;8.25;;;16.90;99.90;;;;;;5094265;28;20036;-75
2021/09/25 04:41:34;;;;;;;25.48;8.65;;;16.90;99.90;;;;;;5094486;28;20476;-74
2021/09/25 04:43:59;;;;;;;20.98;7.70;;;16.90;99.90;;;;;;5094473;28;20044;-74
2021/09/25 04:46:25;;;;;;;18.42;7.72;;;16.90;99.90;;;;;;5094270;28;20032;-74
2021/09/25 04:48:51;;;;;;;32.38;8.35;;;16.90;99.90;;;;;;5094251;28;20036;-75
2021/09/25 04:51:18;;;;;;;20.10;7.80;;;16.90;99.90;;;;;;5093229;28;20036;-74
2021/09/25 04:53:44;;;;;;;19.75;7.35;;;17.00;99.90;;;;;;5094302;28;20097;-74
2021/09/25 04:56:10;;;;;;;16.90;7.78;;;16.90;99.90;;;;;;5094097;28;20044;-74
2021/09/25 04:58:37;;;;;;;20.05;7.78;;;16.90;99.90;;;;;;5093849;28;20450;-75
2021/09/25 05:01:06;;;;;;;25.23;7.90;;;16.90;99.90;;;;;;5092673;28;20170;-74
2021/09/25 05:03:33;;;;;;;20.77;7.85;;;16.90;99.90;;;;;;5093995;28;20447;-74
2021/09/25 05:06:00;;;;;;;23.33;8.40;;;16.90;99.90;;;;;;5094171;28;20051;-74
2021/09/25 05:08:26;;;;;;;18.88;8.30;;;16.90;99.90;;;;;;5093854;28;20072;-74
2021/09/25 05:10:52;;;;;;;17.50;8.02;;;16.90;99.90;;;;;;5093714;28;20496;-74
2021/09/25 05:13:18;;;;;;;23.25;8.10;;;16.90;99.90;;;;;;5094194;28;20472;-74
2021/09/25 05:15:43;;;;;;;17.55;7.10;;;16.80;99.90;;;;;;5092854;28;20048;-74
2021/09/25 05:18:09;;;;;;;17.38;8.75;;;16.80;99.90;;;;;;5093577;28;20044;-75
2021/09/25 05:20:34;;;;;;;26.25;8.82;;;16.70;99.90;;;;;;5093514;28;20043;-75
2021/09/25 05:23:00;;;;;;;20.45;7.25;;;16.70;99.90;;;;;;5093924;28;20538;-75
2021/09/25 05:25:25;;;;;;;15.25;7.60;;;16.70;99.90;;;;;;5093731;28;20480;-75
2021/09/25 05:27:51;;;;;;;21.30;7.88;;;16.70;99.90;;;;;;5092932;28;20040;-75
2021/09/25 05:30:17;;;;;;;18.63;7.82;;;16.70;99.90;;;;;;5093779;28;20044;-74
2021/09/25 05:32:43;;;;;;;17.08;7.60;;;16.60;99.90;;;;;;5092126;28;20089;-75
2021/09/25 05:35:09;;;;;;;19.02;7.45;;;16.60;99.90;;;;;;5092837;28;20043;-75
2021/09/25 05:37:34;;;;;;;20.83;8.90;;;16.70;99.90;;;;;;5093868;28;20071;-75
2021/09/25 05:40:00;;;;;;;16.02;7.53;;;16.70;99.90;;;;;;5092081;28;20044;-75
2021/09/25 05:42:27;;;;;;;24.23;8.13;;;16.70;99.90;;;;;;5092336;28;20403;-75
2021/09/25 05:44:54;;;;;;;23.00;7.88;;;16.70;99.90;;;;;;5093562;28;20082;-75
2021/09/25 05:47:21;;;;;;;20.13;7.60;;;16.70;99.90;;;;;;5093537;28;20076;-75
2021/09/25 05:49:47;;;;;;;17.52;9.13;;;16.70;99.90;;;;;;5093221;28;20118;-75
2021/09/25 05:52:14;;;;;;;18.35;8.55;;;16.70;99.90;;;;;;5093352;28;20115;-75
2021/09/25 05:54:40;;;;;;;17.52;7.57;;;16.60;99.90;;;;;;5093486;28;20063;-75
2021/09/25 05:57:07;;;;;;;21.63;8.68;;;16.70;99.90;;;;;;5093285;28;20518;-75
2021/09/25 05:59:32;;;;;;;15.32;7.53;;;16.70;99.90;;;;;;5092793;28;20048;-75
2021/09/25 06:01:58;;;;;;;23.58;9.30;;;16.60;99.90;;;;;;5092958;28;20105;-75
2021/09/25 06:04:24;;;;;;;28.45;8.68;;;16.60;99.90;;;;;;5093325;28;20072;-75
2021/09/25 06:06:49;;;;;;;17.83;7.90;;;16.60;99.90;;;;;;5093562;28;20157;-75
2021/09/25 06:09:15;;;;;;;18.88;8.32;;;16.70;99.90;;;;;;5092971;28;20032;-75
2021/09/25 06:11:41;;;;;;;23.55;8.82;;;16.60;99.90;;;;;;5093061;28;20373;-75
2021/09/25 06:14:06;;;;;;;20.25;7.38;;;16.70;99.90;;;;;;5093618;28;20350;-75
2021/09/25 06:16:32;;;;;;;19.42;8.30;;;16.70;99.90;;;;;;5092032;28;20040;-75
2021/09/25 06:18:57;;;;;;;23.33;8.15;;;16.70;99.90;;;;;;5092796;28;20117;-75
2021/09/25 06:21:23;;;;;;;17.90;8.07;;;16.70;99.90;;;;;;5093177;28;20043;-74
2021/09/25 06:23:49;;;;;;;16.95;8.02;;;16.70;99.90;;;;;;5091951;28;20477;-74
2021/09/25 06:26:15;;;;;;;22.23;8.77;;;16.70;99.90;;;;;;5093142;28;20082;-74
2021/09/25 06:28:41;;;;;;;18.95;8.20;;;16.80;99.90;;;;;;5092647;28;20040;-74
2021/09/25 06:31:06;;;;;;;16.83;7.88;;;16.70;99.90;;;;;;5092886;28;20040;-74
2021/09/25 06:33:32;;;;;;;24.83;8.18;;;16.80;99.90;;;;;;5091537;28;20036;-74
2021/09/25 06:35:58;;;;;;;17.15;8.07;;;16.80;99.90;;;;;;5092990;28;20040;-74
2021/09/25 06:38:24;;;;;;;21.92;8.93;;;16.80;99.90;;;;;;5092938;28;20035;-74
2021/09/25 06:40:49;;;;;;;22.00;8.77;;;16.80;99.90;;;;;;5092528;28;20036;-74
2021/09/25 06:43:15;;;;;;;19.90;9.40;;;16.80;99.90;;;;;;5091576;28;20044;-74
2021/09/25 06:45:41;;;;;;;24.50;9.40;;;16.90;99.90;;;;;;5095357;28;20040;-74
2021/09/25 06:48:07;;;;;;;21.75;8.75;;;16.90;99.90;;;;;;5095244;28;20040;-74
2021/09/25 06:50:33;;;;;;;17.27;9.90;;;16.90;99.90;;;;;;5096608;28;20353;-74
2021/09/25 06:52:58;;;;;;;26.55;10.35;;;16.90;99.90;;;;;;5096795;28;20184;-74
2021/09/25 06:55:24;;;;;;;19.17;9.18;;;16.90;99.90;;;;;;5096369;28;20047;-74
2021/09/25 06:57:50;;;;;;;21.13;9.75;;;17.00;99.90;;;;;;5096300;28;20032;-74
2021/09/25 07:00:16;;;;;;;19.15;9.20;;;17.10;99.90;;;;;;5094610;28;20055;-74
2021/09/25 07:02:42;;;;;;;17.67;8.82;;;17.00;99.90;;;;;;5096212;28;20517;-73
2021/09/25 07:05:09;;;;;;;18.02;9.15;;;17.10;99.90;;;;;;5096591;28;20036;-74
2021/09/25 07:07:35;;;;;;;24.23;9.70;;;17.10;99.90;;;;;;5096115;28;20040;-74
2021/09/25 07:10:03;;;;;;;22.08;9.40;;;17.20;99.90;;;;;;5077539;28;20036;-74
2021/09/25 07:12:28;;;;;;;20.58;9.85;;;17.20;99.90;;;;;;5094753;28;20490;-74
2021/09/25 07:14:56;;;;;;;20.20;10.38;;;17.20;99.90;;;;;;5096113;28;20040;-74
2021/09/25 07:17:23;;;;;;;24.35;10.15;;;17.30;99.90;;;;;;5096043;28;20342;-74
2021/09/25 07:19:49;;;;;;;16.55;9.55;;;17.30;99.90;;;;;;5095797;28;20495;-74
2021/09/25 07:22:15;;;;;;;16.25;8.43;;;17.40;99.90;;;;;;5096100;28;20036;-74
2021/09/25 07:24:41;;;;;;;19.15;9.30;;;17.50;99.90;;;;;;5095052;28;20046;-74
2021/09/25 07:27:06;;;;;;;22.58;9.82;;;17.70;99.90;;;;;;5094629;28;20407;-74
2021/09/25 07:29:32;;;;;;;22.15;9.52;;;17.70;99.90;;;;;;5095592;28;20044;-74
2021/09/25 07:31:58;;;;;;;23.35;10.48;;;17.70;99.90;;;;;;5094653;28;20044;-74
2021/09/25 07:34:23;;;;;;;25.10;10.52;;;17.70;99.90;;;;;;5095672;28;20040;-74
2021/09/25 07:36:49;;;;;;;20.83;9.85;;;17.70;99.90;;;;;;5095589;28;20051;-74
2021/09/25 07:39:15;;;;;;;19.77;9.85;;;17.80;99.90;;;;;;5094157;28;20036;-74
2021/09/25 07:41:41;;;;;;;22.65;10.23;;;17.80;99.90;;;;;;5095811;28;20089;-74
2021/09/25 07:44:07;;;;;;;18.25;9.95;;;17.80;99.90;;;;;;5094247;28;20040;-74
2021/09/25 07:46:33;;;;;;;26.85;11.60;;;17.90;99.90;;;;;;5095896;28;20031;-74
2021/09/25 07:48:59;;;;;;;20.80;10.98;;;18.20;99.90;;;;;;5095448;28;20093;-75
2021/09/25 07:51:26;;;;;;;18.63;10.05;;;18.50;99.90;;;;;;5095617;28;20040;-74
2021/09/25 07:53:51;;;;;;;17.02;9.48;;;18.70;99.90;;;;;;5095834;28;20040;-75
2021/09/25 07:56:17;;;;;;;16.30;9.70;;;18.90;99.90;;;;;;5094700;28;20136;-75
2021/09/25 07:58:43;;;;;;;20.35;9.70;;;19.10;99.90;;;;;;5095060;28;20040;-75
2021/09/25 08:01:08;;;;;;;21.38;9.95;;;19.20;99.90;;;;;;5093115;28;20055;-75
2021/09/25 08:03:34;;;;;;;19.98;10.15;;;19.10;99.90;;;;;;5083617;28;20037;-75
2021/09/25 08:06:00;;;;;;;25.17;11.30;;;19.10;99.90;;;;;;5083955;28;20078;-75
2021/09/25 08:08:26;;;;;;;18.35;10.23;;;19.10;99.90;;;;;;5084853;28;20040;-75
2021/09/25 08:10:51;;;;;;;15.57;9.52;;;19.10;99.90;;;;;;5081336;28;20041;-75
2021/09/25 08:13:17;;;;;;;20.00;11.00;;;19.10;99.90;;;;;;5087723;28;20052;-74
2021/09/25 08:15:43;;;;;;;19.83;11.55;;;19.00;99.90;;;;;;5094827;28;20452;-74
2021/09/25 08:18:08;;;;;;;20.13;11.82;;;18.90;99.90;;;;;;5095014;28;20032;-75
2021/09/25 08:20:34;;;;;;;22.40;12.15;;;18.90;99.90;;;;;;5094456;28;20568;-74
2021/09/25 08:23:00;;;;;;;23.02;12.25;;;18.90;99.90;;;;;;5094730;28;20051;-74
2021/09/25 08:25:25;;;;;;;26.27;12.52;;;18.90;99.90;;;;;;5094705;28;20047;-74
2021/09/25 08:27:51;;;;;;;23.23;12.25;;;18.90;99.90;;;;;;5093300;28;20468;-74
2021/09/25 08:30:19;;;;;;;26.08;12.07;;;18.90;99.90;;;;;;5094450;28;20089;-75
2021/09/25 08:32:46;;;;;;;26.23;12.32;;;18.90;99.90;;;;;;5094761;28;20138;-74
2021/09/25 08:35:12;;;;;;;20.98;13.05;;;19.00;99.90;;;;;;5094027;28;20089;-75
2021/09/25 08:37:39;;;;;;;24.17;12.07;;;19.00;99.90;;;;;;5094834;28;20044;-75
2021/09/25 08:40:10;;;;;;;23.05;12.45;;;19.10;99.90;;;;;;5092963;28;20102;-74
2021/09/25 08:42:36;;;;;;;19.92;10.75;;;19.10;99.90;;;;;;5095043;28;20494;-74
2021/09/25 08:45:04;;;;;;;28.33;11.43;;;19.10;99.90;;;;;;5094412;28;20032;-74
2021/09/25 08:47:31;;;;;;;24.08;12.52;;;19.20;99.90;;;;;;5094465;28;20054;-74
2021/09/25 08:49:56;;;;;;;25.40;12.50;;;19.30;99.90;;;;;;5094343;28;20498;-74
2021/09/25 08:52:22;;;;;;;25.23;12.95;;;19.20;99.90;;;;;;5094298;28;20040;-74
2021/09/25 08:54:47;;;;;;;23.30;12.80;;;19.20;99.90;;;;;;5093466;28;20434;-74
2021/09/25 08:57:13;;;;;;;22.38;12.25;;;19.20;99.90;;;;;;5094828;28;20489;-74
2021/09/25 08:59:39;;;;;;;21.50;11.45;;;19.20;99.90;;;;;;5093801;28;20048;-75
2021/09/25 09:02:10;;;;;;;18.80;11.93;;;19.20;99.90;;;;;;5092733;28;20044;-75
2021/09/25 09:04:43;;;;;;;20.52;12.50;;;19.20;99.90;;;;;;5075980;28;20032;-74
2021/09/25 09:07:15;;;;;;;20.67;12.93;;;19.30;99.90;;;;;;5093269;28;20044;-74
2021/09/25 09:09:42;;;;;;;25.25;13.35;;;19.40;99.90;;;;;;5093864;28;20048;-75
2021/09/25 09:12:08;;;;;;;18.83;12.60;;;19.40;99.90;;;;;;5094159;28;20043;-75
2021/09/25 09:14:50;;;;;;;28.98;12.52;;;19.40;99.90;;;;;;5092454;28;20050;-75
2021/09/25 09:17:26;;;;;;;19.20;12.43;;;19.50;99.90;;;;;;5093672;28;20126;-75
2021/09/25 09:19:53;;;;;;;19.08;12.98;;;19.50;99.90;;;;;;5093395;28;20047;-75
2021/09/25 09:22:21;;;;;;;17.20;11.85;;;19.50;99.90;;;;;;5093989;28;20036;-74
2021/09/25 09:24:49;;;;;;;20.48;12.43;;;19.50;99.90;;;;;;5092669;28;20431;-75
2021/09/25 09:27:24;;;;;;;23.77;13.32;;;19.60;99.90;;;;;;5093925;28;20511;-75
2021/09/25 09:30:11;;;;;;;19.23;12.40;;;19.70;99.90;;;;;;5093380;28;20036;-75
2021/09/25 09:32:41;;;;;;;19.80;12.15;;;19.80;99.90;;;;;;5093489;28;20079;-74
2021/09/25 09:35:16;;;;;;;22.40;12.90;;;19.90;99.90;;;;;;5093543;28;20544;-74
2021/09/25 09:37:45;;;;;;;19.70;12.07;;;19.90;99.90;;;;;;5093530;28;20071;-74
2021/09/25 09:40:11;;;;;;;23.15;12.32;;;19.90;99.90;;;;;;5093178;28;20032;-74
2021/09/25 09:42:48;;;;;;;19.83;12.77;;;19.80;99.90;;;;;;5093652;28;20093;-74
2021/09/25 09:45:26;;;;;;;18.67;12.00;;;19.90;99.90;;;;;;5093949;28;20097;-74
2021/09/25 09:47:51;;;;;;;20.67;12.13;;;20.00;99.90;;;;;;5093938;28;20460;-74
2021/09/25 09:50:19;;;;;;;23.20;12.55;;;20.10;99.90;;;;;;5093219;28;20035;-74
2021/09/25 09:52:45;;;;;;;20.27;11.88;;;20.10;99.90;;;;;;5075479;28;20084;-74
2021/09/25 09:55:21;;;;;;;14.68;11.40;;;20.10;99.90;;;;;;5092605;28;20086;-74
2021/09/25 09:58:02;;;;;;;18.75;11.77;;;20.20;99.90;;;;;;5093615;28;20036;-75
2021/09/25 10:00:27;;;;;;;15.20;10.80;;;20.20;99.90;;;;;;5093059;28;20040;-75
2021/09/25 10:02:54;;;;;;;19.90;11.75;;;20.30;99.90;;;;;;5093189;28;20396;-75
2021/09/25 10:05:20;;;;;;;18.45;11.55;;;20.30;99.90;;;;;;5093199;28;20044;-75
2021/09/25 10:07:46;;;;;;;17.90;11.55;;;20.40;99.90;;;;;;5093166;28;20430;-75
2021/09/25 10:10:12;;;;;;;16.75;10.80;;;20.50;99.90;;;;;;5093071;28;20044;-74
2021/09/25 10:12:39;;;;;;;18.88;11.20;;;20.40;99.90;;;;;;5093657;28;20044;-74
2021/09/25 10:15:06;;;;;;;18.75;10.85;;;20.40;99.90;;;;;;5091918;28;20055;-74
2021/09/25 10:17:32;;;;;;;21.08;11.45;;;20.50;99.90;;;;;;5092935;28;20388;-74
2021/09/25 10:19:59;;;;;;;17.25;9.68;;;20.50;99.90;;;;;;5093492;28;20063;-75
2021/09/25 10:22:29;;;;;;;16.67;9.98;;;20.60;99.90;;;;;;5097529;28;20407;-75
2021/09/25 10:25:05;;;;;;;20.58;10.85;;;20.70;99.90;;;;;;5097529;28;20119;-75
2021/09/25 10:27:41;;;;;;;17.58;10.23;;;20.80;99.90;;;;;;5096153;28;20048;-74
2021/09/25 10:30:10;;;;;;;18.88;10.82;;;20.80;99.90;;;;;;5097140;28;20123;-74
2021/09/25 10:32:44;;;;;;;19.45;10.55;;;20.70;99.90;;;;;;5096866;28;20401;-74
2021/09/25 10:35:26;;;;;;;21.25;11.15;;;20.60;99.90;;;;;;5096971;28;20040;-71
2021/09/25 10:38:00;;;;;;;15.88;10.10;;;20.60;99.90;;;;;;5097124;28;20043;-75
2021/09/25 10:40:34;;;;;;;18.55;10.95;;;20.60;99.90;;;;;;5095379;28;20044;-75
2021/09/25 10:43:13;;;;;;;18.98;10.13;;;20.60;99.90;;;;;;5095473;28;20036;-74
2021/09/25 10:45:39;;;;;;;22.60;11.70;;;20.70;99.90;;;;;;5095737;28;20044;-75
2021/09/25 10:48:11;;;;;;;24.35;12.05;;;20.70;99.90;;;;;;5096705;28;20051;-75
2021/09/25 10:50:40;;;;;;;16.52;10.48;;;20.70;99.90;;;;;;5096397;28;20148;-71
2021/09/25 10:53:10;;;;;;;24.52;11.85;;;20.80;99.90;;;;;;5095173;28;20036;-74
2021/09/25 10:55:38;;;;;;;19.52;11.43;;;20.80;99.90;;;;;;5096446;28;20036;-74
2021/09/25 10:58:17;;;;;;;22.73;11.43;;;20.80;99.90;;;;;;5096363;28;20450;-74
2021/09/25 11:01:08;;;;;;;23.02;11.23;;;20.80;99.90;;;;;;5096429;28;20040;-74
2021/09/25 11:03:39;;;;;;;19.20;10.45;;;20.90;99.90;;;;;;5095036;28;20067;-75
2021/09/25 11:06:07;;;;;;;18.15;10.30;;;21.00;99.90;;;;;;5095069;28;20123;-75
2021/09/25 11:08:33;;;;;;;20.65;9.20;;;21.10;99.90;;;;;;5095073;28;20458;-74
2021/09/25 11:11:13;;;;;;;15.25;9.63;;;21.20;99.90;;;;;;5096217;28;20070;-75
2021/09/25 11:14:00;;;;;;;15.23;8.93;;;21.30;99.90;;;;;;5096208;28;20407;-74
2021/09/25 11:16:50;;;;;;;16.55;9.75;;;21.20;99.90;;;;;;5094862;28;20043;-75
2021/09/25 11:19:21;;;;;;;19.17;9.57;;;21.20;99.90;;;;;;5095550;28;20036;-74
2021/09/25 11:22:06;;;;;;;17.27;9.00;;;21.20;99.90;;;;;;5095941;28;20081;-74
2021/09/25 11:24:33;;;;;;;15.00;9.27;;;21.20;99.90;;;;;;5095997;28;20237;-74
2021/09/25 11:27:00;;;;;;;17.92;10.40;;;21.20;99.90;;;;;;5096142;28;20173;-74
2021/09/25 11:29:25;;;;;;;17.20;10.23;;;21.20;99.90;;;;;;5095610;28;20040;-74
2021/09/25 11:32:03;;;;;;;15.05;9.25;;;21.10;99.90;;;;;;5093480;28;20040;-75
2021/09/25 11:34:30;;;;;;;13.68;7.93;;;21.00;99.90;;;;;;5096294;28;20119;-74
2021/09/25 11:37:02;;;;;;;16.85;10.32;;;20.90;99.90;;;;;;5096391;28;20043;-74
2021/09/25 11:39:57;;;;;;;18.08;9.77;;;20.80;99.90;;;;;;5095714;28;20032;-75
2021/09/25 11:42:25;;;;;;;19.58;10.88;;;20.70;99.90;;;;;;5090442;28;20137;-75
2021/09/25 11:44:59;;;;;;;18.88;9.15;;;20.60;99.90;;;;;;5095610;28;20040;-75
2021/09/25 11:47:35;;;;;;;17.77;9.25;;;20.60;99.90;;;;;;5094662;28;20048;-75
2021/09/25 11:50:12;;;;;;;16.27;9.45;;;20.60;99.90;;;;;;5094001;28;20450;-75
2021/09/25 11:52:40;;;;;;;15.60;10.27;;;20.60;99.90;;;;;;5095668;28;20040;-75
2021/09/25 11:55:07;;;;;;;14.15;9.75;;;20.60;99.90;;;;;;5095831;28;20046;-74
2021/09/25 11:57:32;;;;;;;20.15;10.27;;;20.50;99.90;;;;;;5095816;28;20036;-74
2021/09/25 11:59:58;;;;;;;16.75;9.45;;;20.40;99.90;;;;;;5095053;28;20446;-75
2021/09/25 12:02:42;;;;;;;22.05;11.55;;;20.40;99.90;;;;;;5095826;28;20040;-74
2021/09/25 12:05:36;;;;;;;16.67;9.52;;;20.40;99.90;;;;;;5095573;28;20379;-74
2021/09/25 12:08:03;;;;;;;;;;;20.40;99.90;;;;;;5095597;28;20042;-74
2021/09/25 12:10:32;;;;;;;18.20;9.95;;;20.20;99.90;;;;;;5095442;28;19916;-74
2021/09/25 12:12:59;;;;;;;18.85;10.30;;;20.30;99.90;;;;;;5094835;28;20036;-73
2021/09/25 12:15:32;;;;;;;13.73;9.43;;;20.30;99.90;;;;;;5093943;28;20055;-73
2021/09/25 12:18:16;;;;;;;17.08;9.63;;;20.30;99.90;;;;;;5095045;28;20098;-74
2021/09/25 12:20:44;;;;;;;13.93;8.25;;;20.30;99.90;;;;;;5094520;28;20503;-74
2021/09/25 12:23:11;;;;;;;19.23;10.85;;;20.30;99.90;;;;;;5095577;28;20115;-74
2021/09/25 12:25:39;;;;;;;21.10;11.25;;;20.30;99.90;;;;;;5093726;28;20122;-74
2021/09/25 12:28:26;;;;;;;15.88;9.93;;;20.30;99.90;;;;;;5094772;28;20403;-74
2021/09/25 12:30:56;;;;;;;17.55;10.57;;;20.20;99.90;;;;;;5094394;28;20081;-74
2021/09/25 12:33:22;;;;;;;17.45;9.90;;;20.20;99.90;;;;;;5093396;28;20085;-74
2021/09/25 12:36:01;;;;;;;14.77;10.75;;;20.20;99.90;;;;;;5095176;28;20044;-74